sensor_id;sensor_type;location;lat;lon;timestamp;P1;durP1;ratioP1;P2;durP2;ratioP2
71679;SDS011;59512;42.662;23.254;2023-09-18T00:01:49;24.15;;;16.30;;
71679;SDS011;59512;42.662;23.254;2023-09-18T00:04:14;21.30;;;14.60;;
71679;SDS011;59512;42.662;23.254;2023-09-18T00:06:40;23.27;;;16.43;;
71679;SDS011;59512;42.662;23.254;2023-09-18T00:09:05;23.83;;;16.20;;
71679;SDS011;59512;42.662;23.254;2023-09-18T00:11:36;24.05;;;16.88;;
71679;SDS011;59512;42.662;23.254;2023-09-18T00:14:01;26.60;;;17.30;;
71679;SDS011;59512;42.662;23.254;2023-09-18T00:16:28;24.77;;;17.10;;
71679;SDS011;59512;42.662;23.254;2023-09-18T00:18:53;24.97;;;17.17;;
71679;SDS011;59512;42.662;23.254;2023-09-18T00:21:18;27.77;;;18.93;;
71679;SDS011;59512;42.662;23.254;2023-09-18T00:23:44;27.60;;;17.57;;
71679;SDS011;59512;42.662;23.254;2023-09-18T00:26:11;22.30;;;15.93;;
71679;SDS011;59512;42.662;23.254;2023-09-18T00:28:36;24.67;;;16.20;;
71679;SDS011;59512;42.662;23.254;2023-09-18T00:31:02;23.65;;;15.15;;
71679;SDS011;59512;42.662;23.254;2023-09-18T00:33:27;23.60;;;16.43;;
71679;SDS011;59512;42.662;23.254;2023-09-18T00:35:53;22.63;;;16.33;;
71679;SDS011;59512;42.662;23.254;2023-09-18T00:38:18;20.73;;;15.07;;
71679;SDS011;59512;42.662;23.254;2023-09-18T00:40:46;22.33;;;15.13;;
71679;SDS011;59512;42.662;23.254;2023-09-18T00:43:12;24.48;;;16.23;;
71679;SDS011;59512;42.662;23.254;2023-09-18T00:45:44;21.73;;;15.97;;
71679;SDS011;59512;42.662;23.254;2023-09-18T00:48:11;24.00;;;16.48;;
71679;SDS011;59512;42.662;23.254;2023-09-18T00:50:37;22.73;;;15.57;;
71679;SDS011;59512;42.662;23.254;2023-09-18T00:53:03;26.73;;;17.27;;
71679;SDS011;59512;42.662;23.254;2023-09-18T00:55:29;25.48;;;16.92;;
71679;SDS011;59512;42.662;23.254;2023-09-18T00:57:55;23.45;;;16.38;;
71679;SDS011;59512;42.662;23.254;2023-09-18T01:00:21;24.40;;;16.87;;
71679;SDS011;59512;42.662;23.254;2023-09-18T01:02:47;26.75;;;17.88;;
71679;SDS011;59512;42.662;23.254;2023-09-18T01:05:13;24.52;;;18.50;;
71679;SDS011;59512;42.662;23.254;2023-09-18T01:07:41;24.85;;;17.38;;
71679;SDS011;59512;42.662;23.254;2023-09-18T01:10:07;21.33;;;15.80;;
71679;SDS011;59512;42.662;23.254;2023-09-18T01:12:36;23.77;;;16.05;;
71679;SDS011;59512;42.662;23.254;2023-09-18T01:18:00;21.80;;;14.82;;
71679;SDS011;59512;42.662;23.254;2023-09-18T01:20:26;24.37;;;15.23;;
71679;SDS011;59512;42.662;23.254;2023-09-18T01:22:52;25.02;;;16.70;;
71679;SDS011;59512;42.662;23.254;2023-09-18T01:25:18;24.80;;;16.83;;
71679;SDS011;59512;42.662;23.254;2023-09-18T01:27:43;23.53;;;16.77;;
71679;SDS011;59512;42.662;23.254;2023-09-18T01:30:09;25.23;;;15.93;;
71679;SDS011;59512;42.662;23.254;2023-09-18T01:32:34;23.98;;;16.13;;
71679;SDS011;59512;42.662;23.254;2023-09-18T01:35:02;25.88;;;17.13;;
71679;SDS011;59512;42.662;23.254;2023-09-18T01:37:30;23.67;;;17.20;;
71679;SDS011;59512;42.662;23.254;2023-09-18T01:39:57;22.95;;;15.55;;
71679;SDS011;59512;42.662;23.254;2023-09-18T01:42:24;23.05;;;15.75;;
71679;SDS011;59512;42.662;23.254;2023-09-18T01:44:51;24.48;;;16.15;;
71679;SDS011;59512;42.662;23.254;2023-09-18T01:47:18;23.42;;;15.48;;
71679;SDS011;59512;42.662;23.254;2023-09-18T01:49:44;21.87;;;15.50;;
71679;SDS011;59512;42.662;23.254;2023-09-18T01:52:11;25.17;;;16.45;;
71679;SDS011;59512;42.662;23.254;2023-09-18T01:54:36;26.13;;;16.83;;
71679;SDS011;59512;42.662;23.254;2023-09-18T01:57:02;22.27;;;15.77;;
71679;SDS011;59512;42.662;23.254;2023-09-18T01:59:28;25.02;;;15.00;;
71679;SDS011;59512;42.662;23.254;2023-09-18T02:01:53;22.23;;;16.00;;
71679;SDS011;59512;42.662;23.254;2023-09-18T02:04:19;22.80;;;15.77;;
71679;SDS011;59512;42.662;23.254;2023-09-18T02:06:46;23.88;;;16.13;;
71679;SDS011;59512;42.662;23.254;2023-09-18T02:09:12;22.58;;;15.63;;
71679;SDS011;59512;42.662;23.254;2023-09-18T02:11:38;22.57;;;15.40;;
71679;SDS011;59512;42.662;23.254;2023-09-18T02:14:05;24.70;;;17.35;;
71679;SDS011;59512;42.662;23.254;2023-09-18T02:16:33;26.17;;;18.02;;
71679;SDS011;59512;42.662;23.254;2023-09-18T02:18:59;25.17;;;18.03;;
71679;SDS011;59512;42.662;23.254;2023-09-18T02:21:25;27.77;;;18.13;;
71679;SDS011;59512;42.662;23.254;2023-09-18T02:23:51;27.38;;;17.85;;
71679;SDS011;59512;42.662;23.254;2023-09-18T02:26:17;21.90;;;16.03;;
71679;SDS011;59512;42.662;23.254;2023-09-18T02:28:43;26.83;;;18.73;;
71679;SDS011;59512;42.662;23.254;2023-09-18T02:31:09;28.25;;;19.35;;
71679;SDS011;59512;42.662;23.254;2023-09-18T02:33:34;27.13;;;19.00;;
71679;SDS011;59512;42.662;23.254;2023-09-18T02:35:59;26.50;;;18.87;;
71679;SDS011;59512;42.662;23.254;2023-09-18T02:38:25;27.00;;;18.70;;
71679;SDS011;59512;42.662;23.254;2023-09-18T02:40:51;29.23;;;20.25;;
71679;SDS011;59512;42.662;23.254;2023-09-18T02:43:18;34.35;;;23.55;;
71679;SDS011;59512;42.662;23.254;2023-09-18T02:45:43;31.37;;;22.00;;
71679;SDS011;59512;42.662;23.254;2023-09-18T02:48:10;30.73;;;21.45;;
71679;SDS011;59512;42.662;23.254;2023-09-18T02:50:36;30.67;;;20.43;;
71679;SDS011;59512;42.662;23.254;2023-09-18T02:53:01;30.60;;;21.47;;
71679;SDS011;59512;42.662;23.254;2023-09-18T02:55:28;31.35;;;21.10;;
71679;SDS011;59512;42.662;23.254;2023-09-18T02:57:53;34.33;;;23.27;;
71679;SDS011;59512;42.662;23.254;2023-09-18T03:00:19;32.53;;;21.55;;
71679;SDS011;59512;42.662;23.254;2023-09-18T03:02:44;31.27;;;20.83;;
71679;SDS011;59512;42.662;23.254;2023-09-18T03:05:10;28.93;;;21.53;;
71679;SDS011;59512;42.662;23.254;2023-09-18T03:07:35;30.67;;;20.63;;
71679;SDS011;59512;42.662;23.254;2023-09-18T03:10:01;30.10;;;22.23;;
71679;SDS011;59512;42.662;23.254;2023-09-18T03:12:27;32.03;;;22.90;;
71679;SDS011;59512;42.662;23.254;2023-09-18T03:14:53;33.78;;;22.25;;
71679;SDS011;59512;42.662;23.254;2023-09-18T03:17:18;31.37;;;22.73;;
71679;SDS011;59512;42.662;23.254;2023-09-18T03:19:47;31.27;;;22.38;;
71679;SDS011;59512;42.662;23.254;2023-09-18T03:22:15;28.08;;;21.80;;
71679;SDS011;59512;42.662;23.254;2023-09-18T03:24:41;31.10;;;21.40;;
71679;SDS011;59512;42.662;23.254;2023-09-18T03:27:06;29.17;;;21.80;;
71679;SDS011;59512;42.662;23.254;2023-09-18T03:29:32;50.63;;;35.70;;
71679;SDS011;59512;42.662;23.254;2023-09-18T03:31:57;34.97;;;23.87;;
71679;SDS011;59512;42.662;23.254;2023-09-18T03:34:24;29.52;;;20.67;;
71679;SDS011;59512;42.662;23.254;2023-09-18T03:36:52;29.33;;;21.07;;
71679;SDS011;59512;42.662;23.254;2023-09-18T03:39:18;32.30;;;22.48;;
71679;SDS011;59512;42.662;23.254;2023-09-18T03:41:43;33.93;;;23.80;;
71679;SDS011;59512;42.662;23.254;2023-09-18T03:44:10;32.33;;;22.58;;
71679;SDS011;59512;42.662;23.254;2023-09-18T03:46:35;34.40;;;23.83;;
71679;SDS011;59512;42.662;23.254;2023-09-18T03:49:01;34.78;;;25.15;;
71679;SDS011;59512;42.662;23.254;2023-09-18T03:51:27;36.20;;;24.73;;
71679;SDS011;59512;42.662;23.254;2023-09-18T03:53:56;36.63;;;24.73;;
71679;SDS011;59512;42.662;23.254;2023-09-18T03:56:21;36.60;;;25.93;;
71679;SDS011;59512;42.662;23.254;2023-09-18T03:58:47;33.30;;;23.50;;
71679;SDS011;59512;42.662;23.254;2023-09-18T04:01:14;39.50;;;24.38;;
71679;SDS011;59512;42.662;23.254;2023-09-18T04:03:40;34.00;;;23.40;;
71679;SDS011;59512;42.662;23.254;2023-09-18T04:06:05;33.03;;;23.17;;
71679;SDS011;59512;42.662;23.254;2023-09-18T04:08:31;35.25;;;24.20;;
71679;SDS011;59512;42.662;23.254;2023-09-18T04:10:57;79.17;;;53.80;;
71679;SDS011;59512;42.662;23.254;2023-09-18T04:13:23;44.67;;;32.13;;
71679;SDS011;59512;42.662;23.254;2023-09-18T04:15:48;35.07;;;25.40;;
71679;SDS011;59512;42.662;23.254;2023-09-18T04:18:14;32.87;;;23.60;;
71679;SDS011;59512;42.662;23.254;2023-09-18T04:20:39;38.55;;;23.80;;
71679;SDS011;59512;42.662;23.254;2023-09-18T04:25:45;38.05;;;26.50;;
71679;SDS011;59512;42.662;23.254;2023-09-18T04:28:11;37.73;;;23.43;;
71679;SDS011;59512;42.662;23.254;2023-09-18T04:30:38;36.00;;;24.05;;
71679;SDS011;59512;42.662;23.254;2023-09-18T04:33:03;33.90;;;24.40;;
71679;SDS011;59512;42.662;23.254;2023-09-18T04:35:29;38.33;;;25.65;;
71679;SDS011;59512;42.662;23.254;2023-09-18T04:37:56;36.88;;;24.25;;
71679;SDS011;59512;42.662;23.254;2023-09-18T04:40:21;34.70;;;24.27;;
71679;SDS011;59512;42.662;23.254;2023-09-18T04:42:48;33.30;;;22.92;;
71679;SDS011;59512;42.662;23.254;2023-09-18T04:45:14;33.43;;;23.83;;
71679;SDS011;59512;42.662;23.254;2023-09-18T04:47:41;32.55;;;22.90;;
71679;SDS011;59512;42.662;23.254;2023-09-18T04:50:06;34.47;;;23.87;;
71679;SDS011;59512;42.662;23.254;2023-09-18T04:52:35;34.15;;;23.48;;
71679;SDS011;59512;42.662;23.254;2023-09-18T04:55:04;35.45;;;24.58;;
71679;SDS011;59512;42.662;23.254;2023-09-18T04:57:31;34.13;;;24.48;;
71679;SDS011;59512;42.662;23.254;2023-09-18T04:59:56;34.30;;;24.47;;
71679;SDS011;59512;42.662;23.254;2023-09-18T05:02:22;36.47;;;25.03;;
71679;SDS011;59512;42.662;23.254;2023-09-18T05:04:47;36.92;;;25.73;;
71679;SDS011;59512;42.662;23.254;2023-09-18T05:07:12;34.67;;;24.97;;
71679;SDS011;59512;42.662;23.254;2023-09-18T05:09:38;39.20;;;26.17;;
71679;SDS011;59512;42.662;23.254;2023-09-18T05:12:05;37.03;;;25.25;;
71679;SDS011;59512;42.662;23.254;2023-09-18T05:14:33;37.10;;;25.13;;
71679;SDS011;59512;42.662;23.254;2023-09-18T05:16:59;35.92;;;26.35;;
71679;SDS011;59512;42.662;23.254;2023-09-18T05:19:25;36.73;;;26.00;;
71679;SDS011;59512;42.662;23.254;2023-09-18T05:21:50;38.78;;;25.10;;
71679;SDS011;59512;42.662;23.254;2023-09-18T05:24:15;34.90;;;25.43;;
71679;SDS011;59512;42.662;23.254;2023-09-18T05:26:41;36.93;;;24.70;;
71679;SDS011;59512;42.662;23.254;2023-09-18T05:29:06;34.77;;;23.27;;
71679;SDS011;59512;42.662;23.254;2023-09-18T05:31:32;31.27;;;23.73;;
71679;SDS011;59512;42.662;23.254;2023-09-18T05:33:58;33.85;;;24.67;;
71679;SDS011;59512;42.662;23.254;2023-09-18T05:36:23;34.87;;;23.93;;
71679;SDS011;59512;42.662;23.254;2023-09-18T05:38:49;33.40;;;23.70;;
71679;SDS011;59512;42.662;23.254;2023-09-18T05:41:14;33.47;;;24.07;;
71679;SDS011;59512;42.662;23.254;2023-09-18T05:43:40;35.08;;;24.42;;
71679;SDS011;59512;42.662;23.254;2023-09-18T05:46:06;36.35;;;24.30;;
71679;SDS011;59512;42.662;23.254;2023-09-18T05:48:31;36.97;;;26.30;;
71679;SDS011;59512;42.662;23.254;2023-09-18T05:50:56;35.27;;;25.60;;
71679;SDS011;59512;42.662;23.254;2023-09-18T05:53:22;39.80;;;26.03;;
71679;SDS011;59512;42.662;23.254;2023-09-18T05:55:47;42.33;;;27.17;;
71679;SDS011;59512;42.662;23.254;2023-09-18T05:58:13;34.77;;;25.10;;
71679;SDS011;59512;42.662;23.254;2023-09-18T06:00:39;37.30;;;25.88;;
71679;SDS011;59512;42.662;23.254;2023-09-18T06:03:04;38.20;;;25.47;;
71679;SDS011;59512;42.662;23.254;2023-09-18T06:05:31;37.85;;;26.38;;
71679;SDS011;59512;42.662;23.254;2023-09-18T06:07:56;35.33;;;24.97;;
71679;SDS011;59512;42.662;23.254;2023-09-18T06:10:22;34.43;;;24.50;;
71679;SDS011;59512;42.662;23.254;2023-09-18T06:12:49;36.67;;;25.13;;
71679;SDS011;59512;42.662;23.254;2023-09-18T06:15:14;38.50;;;25.33;;
71679;SDS011;59512;42.662;23.254;2023-09-18T06:17:40;40.42;;;26.38;;
71679;SDS011;59512;42.662;23.254;2023-09-18T06:20:07;36.70;;;24.43;;
71679;SDS011;59512;42.662;23.254;2023-09-18T06:22:38;34.22;;;24.13;;
71679;SDS011;59512;42.662;23.254;2023-09-18T06:25:04;35.15;;;25.50;;
71679;SDS011;59512;42.662;23.254;2023-09-18T06:27:35;31.45;;;22.73;;
71679;SDS011;59512;42.662;23.254;2023-09-18T06:30:01;34.95;;;23.65;;
71679;SDS011;59512;42.662;23.254;2023-09-18T06:32:28;37.77;;;24.73;;
71679;SDS011;59512;42.662;23.254;2023-09-18T06:34:53;36.28;;;24.17;;
71679;SDS011;59512;42.662;23.254;2023-09-18T06:37:18;32.60;;;22.93;;
71679;SDS011;59512;42.662;23.254;2023-09-18T06:39:45;31.38;;;21.60;;
71679;SDS011;59512;42.662;23.254;2023-09-18T06:42:10;35.27;;;23.83;;
71679;SDS011;59512;42.662;23.254;2023-09-18T06:44:36;35.80;;;22.40;;
71679;SDS011;59512;42.662;23.254;2023-09-18T06:47:01;34.03;;;22.00;;
71679;SDS011;59512;42.662;23.254;2023-09-18T06:49:26;32.23;;;22.33;;
71679;SDS011;59512;42.662;23.254;2023-09-18T06:51:52;32.13;;;20.92;;
71679;SDS011;59512;42.662;23.254;2023-09-18T06:54:18;31.00;;;22.10;;
71679;SDS011;59512;42.662;23.254;2023-09-18T06:56:43;28.10;;;21.07;;
71679;SDS011;59512;42.662;23.254;2023-09-18T06:59:09;31.65;;;21.88;;
71679;SDS011;59512;42.662;23.254;2023-09-18T07:01:36;29.83;;;20.92;;
71679;SDS011;59512;42.662;23.254;2023-09-18T07:04:01;35.77;;;21.47;;
71679;SDS011;59512;42.662;23.254;2023-09-18T07:06:29;32.92;;;20.25;;
71679;SDS011;59512;42.662;23.254;2023-09-18T07:08:54;28.43;;;20.13;;
71679;SDS011;59512;42.662;23.254;2023-09-18T07:11:20;33.50;;;21.20;;
71679;SDS011;59512;42.662;23.254;2023-09-18T07:13:45;29.17;;;20.37;;
71679;SDS011;59512;42.662;23.254;2023-09-18T07:16:11;31.13;;;20.70;;
71679;SDS011;59512;42.662;23.254;2023-09-18T07:18:36;32.30;;;21.10;;
71679;SDS011;59512;42.662;23.254;2023-09-18T07:21:02;32.40;;;21.33;;
71679;SDS011;59512;42.662;23.254;2023-09-18T07:23:27;31.83;;;20.93;;
71679;SDS011;59512;42.662;23.254;2023-09-18T07:25:53;30.20;;;19.40;;
71679;SDS011;59512;42.662;23.254;2023-09-18T07:28:18;27.03;;;18.80;;
71679;SDS011;59512;42.662;23.254;2023-09-18T07:30:45;26.42;;;18.75;;
71679;SDS011;59512;42.662;23.254;2023-09-18T07:33:10;28.05;;;18.58;;
71679;SDS011;59512;42.662;23.254;2023-09-18T07:35:37;27.35;;;17.80;;
71679;SDS011;59512;42.662;23.254;2023-09-18T07:38:03;27.35;;;18.20;;
71679;SDS011;59512;42.662;23.254;2023-09-18T07:40:29;27.13;;;17.88;;
71679;SDS011;59512;42.662;23.254;2023-09-18T07:42:54;23.60;;;16.23;;
71679;SDS011;59512;42.662;23.254;2023-09-18T07:45:20;26.35;;;17.13;;
71679;SDS011;59512;42.662;23.254;2023-09-18T07:47:45;23.70;;;16.60;;
71679;SDS011;59512;42.662;23.254;2023-09-18T07:50:10;22.57;;;15.53;;
71679;SDS011;59512;42.662;23.254;2023-09-18T07:52:36;23.77;;;16.20;;
71679;SDS011;59512;42.662;23.254;2023-09-18T07:55:02;28.90;;;17.17;;
71679;SDS011;59512;42.662;23.254;2023-09-18T07:57:27;22.40;;;15.40;;
71679;SDS011;59512;42.662;23.254;2023-09-18T07:59:55;25.27;;;16.50;;
71679;SDS011;59512;42.662;23.254;2023-09-18T08:02:20;22.57;;;16.17;;
71679;SDS011;59512;42.662;23.254;2023-09-18T08:04:46;21.67;;;15.13;;
71679;SDS011;59512;42.662;23.254;2023-09-18T08:07:12;22.73;;;15.10;;
71679;SDS011;59512;42.662;23.254;2023-09-18T08:09:37;23.67;;;15.80;;
71679;SDS011;59512;42.662;23.254;2023-09-18T08:12:04;20.23;;;14.57;;
71679;SDS011;59512;42.662;23.254;2023-09-18T08:14:30;24.27;;;15.02;;
71679;SDS011;59512;42.662;23.254;2023-09-18T08:16:56;19.85;;;14.43;;
71679;SDS011;59512;42.662;23.254;2023-09-18T08:19:25;23.40;;;15.47;;
71679;SDS011;59512;42.662;23.254;2023-09-18T08:21:54;22.15;;;15.38;;
71679;SDS011;59512;42.662;23.254;2023-09-18T08:24:20;22.20;;;14.60;;
71679;SDS011;59512;42.662;23.254;2023-09-18T08:26:46;22.42;;;15.10;;
71679;SDS011;59512;42.662;23.254;2023-09-18T08:29:11;21.47;;;15.60;;
71679;SDS011;59512;42.662;23.254;2023-09-18T08:31:37;21.93;;;14.70;;
71679;SDS011;59512;42.662;23.254;2023-09-18T08:34:02;19.57;;;14.40;;
71679;SDS011;59512;42.662;23.254;2023-09-18T08:36:27;21.77;;;14.47;;
71679;SDS011;59512;42.662;23.254;2023-09-18T08:38:55;19.90;;;13.88;;
71679;SDS011;59512;42.662;23.254;2023-09-18T08:41:21;19.58;;;14.38;;
71679;SDS011;59512;42.662;23.254;2023-09-18T08:43:52;21.33;;;14.93;;
71679;SDS011;59512;42.662;23.254;2023-09-18T08:46:21;20.92;;;13.70;;
71679;SDS011;59512;42.662;23.254;2023-09-18T08:48:47;21.55;;;13.25;;
71679;SDS011;59512;42.662;23.254;2023-09-18T08:51:13;26.30;;;14.53;;
71679;SDS011;59512;42.662;23.254;2023-09-18T08:53:39;20.85;;;13.43;;
71679;SDS011;59512;42.662;23.254;2023-09-18T08:56:05;19.70;;;13.55;;
71679;SDS011;59512;42.662;23.254;2023-09-18T08:58:32;21.33;;;14.20;;
71679;SDS011;59512;42.662;23.254;2023-09-18T09:01:03;24.30;;;14.55;;
71679;SDS011;59512;42.662;23.254;2023-09-18T09:03:29;19.42;;;13.80;;
71679;SDS011;59512;42.662;23.254;2023-09-18T09:05:55;19.77;;;14.10;;
71679;SDS011;59512;42.662;23.254;2023-09-18T09:08:21;17.73;;;12.67;;
71679;SDS011;59512;42.662;23.254;2023-09-18T09:10:46;16.95;;;10.75;;
71679;SDS011;59512;42.662;23.254;2023-09-18T09:13:13;16.03;;;10.97;;
71679;SDS011;59512;42.662;23.254;2023-09-18T09:15:45;16.27;;;11.10;;
71679;SDS011;59512;42.662;23.254;2023-09-18T09:18:12;15.43;;;11.00;;
71679;SDS011;59512;42.662;23.254;2023-09-18T09:20:40;18.92;;;11.43;;
71679;SDS011;59512;42.662;23.254;2023-09-18T09:23:09;15.88;;;11.23;;
71679;SDS011;59512;42.662;23.254;2023-09-18T09:25:36;13.40;;;8.70;;
71679;SDS011;59512;42.662;23.254;2023-09-18T09:28:05;14.60;;;9.27;;
71679;SDS011;59512;42.662;23.254;2023-09-18T09:30:31;14.98;;;9.65;;
71679;SDS011;59512;42.662;23.254;2023-09-18T09:32:58;16.20;;;9.25;;
71679;SDS011;59512;42.662;23.254;2023-09-18T09:35:25;12.10;;;8.00;;
71679;SDS011;59512;42.662;23.254;2023-09-18T09:37:59;13.50;;;8.50;;
71679;SDS011;59512;42.662;23.254;2023-09-18T09:40:26;15.63;;;9.73;;
71679;SDS011;59512;42.662;23.254;2023-09-18T09:42:53;17.98;;;9.55;;
71679;SDS011;59512;42.662;23.254;2023-09-18T09:45:25;15.15;;;8.05;;
71679;SDS011;59512;42.662;23.254;2023-09-18T09:47:54;11.38;;;6.85;;
71679;SDS011;59512;42.662;23.254;2023-09-18T09:50:21;14.70;;;8.23;;
71679;SDS011;59512;42.662;23.254;2023-09-18T09:52:47;12.23;;;7.70;;
71679;SDS011;59512;42.662;23.254;2023-09-18T09:55:26;12.77;;;7.35;;
71679;SDS011;59512;42.662;23.254;2023-09-18T10:00:31;13.07;;;8.23;;
71679;SDS011;59512;42.662;23.254;2023-09-18T10:03:01;16.23;;;8.13;;
71679;SDS011;59512;42.662;23.254;2023-09-18T10:05:32;12.70;;;8.07;;
71679;SDS011;59512;42.662;23.254;2023-09-18T10:08:00;10.95;;;7.65;;
71679;SDS011;59512;42.662;23.254;2023-09-18T10:10:30;13.05;;;7.78;;
71679;SDS011;59512;42.662;23.254;2023-09-18T10:12:58;11.95;;;7.53;;
71679;SDS011;59512;42.662;23.254;2023-09-18T10:15:26;12.75;;;7.70;;
71679;SDS011;59512;42.662;23.254;2023-09-18T10:17:53;13.27;;;8.35;;
71679;SDS011;59512;42.662;23.254;2023-09-18T10:20:21;13.18;;;8.35;;
71679;SDS011;59512;42.662;23.254;2023-09-18T10:22:48;13.75;;;8.77;;
71679;SDS011;59512;42.662;23.254;2023-09-18T10:25:21;16.20;;;8.55;;
71679;SDS011;59512;42.662;23.254;2023-09-18T10:27:49;14.57;;;8.85;;
71679;SDS011;59512;42.662;23.254;2023-09-18T10:30:19;13.82;;;9.18;;
71679;SDS011;59512;42.662;23.254;2023-09-18T10:32:48;10.90;;;7.32;;
71679;SDS011;59512;42.662;23.254;2023-09-18T10:35:13;11.60;;;8.57;;
71679;SDS011;59512;42.662;23.254;2023-09-18T10:37:41;13.25;;;8.05;;
71679;SDS011;59512;42.662;23.254;2023-09-18T10:40:08;14.95;;;8.77;;
71679;SDS011;59512;42.662;23.254;2023-09-18T10:42:35;12.33;;;8.17;;
71679;SDS011;59512;42.662;23.254;2023-09-18T10:45:03;11.02;;;7.18;;
71679;SDS011;59512;42.662;23.254;2023-09-18T10:47:32;12.85;;;7.43;;
71679;SDS011;59512;42.662;23.254;2023-09-18T10:49:59;12.13;;;7.68;;
71679;SDS011;59512;42.662;23.254;2023-09-18T10:52:25;13.07;;;7.82;;
71679;SDS011;59512;42.662;23.254;2023-09-18T10:54:51;11.13;;;7.23;;
71679;SDS011;59512;42.662;23.254;2023-09-18T10:57:17;11.90;;;8.07;;
71679;SDS011;59512;42.662;23.254;2023-09-18T10:59:45;13.07;;;7.53;;
71679;SDS011;59512;42.662;23.254;2023-09-18T11:02:14;11.67;;;7.57;;
71679;SDS011;59512;42.662;23.254;2023-09-18T11:04:44;12.23;;;7.38;;
71679;SDS011;59512;42.662;23.254;2023-09-18T11:07:23;8.90;;;6.47;;
71679;SDS011;59512;42.662;23.254;2023-09-18T11:09:49;13.52;;;7.07;;
71679;SDS011;59512;42.662;23.254;2023-09-18T11:12:15;10.97;;;6.57;;
71679;SDS011;59512;42.662;23.254;2023-09-18T11:14:46;10.48;;;6.72;;
71679;SDS011;59512;42.662;23.254;2023-09-18T11:20:28;13.60;;;7.70;;
71679;SDS011;59512;42.662;23.254;2023-09-18T11:25:38;9.43;;;6.35;;
71679;SDS011;59512;42.662;23.254;2023-09-18T11:28:22;11.30;;;6.75;;
71679;SDS011;59512;42.662;23.254;2023-09-18T11:30:49;10.32;;;6.60;;
71679;SDS011;59512;42.662;23.254;2023-09-18T11:33:15;10.10;;;6.53;;
71679;SDS011;59512;42.662;23.254;2023-09-18T11:35:55;9.30;;;6.07;;
71679;SDS011;59512;42.662;23.254;2023-09-18T11:38:21;11.10;;;6.70;;
71679;SDS011;59512;42.662;23.254;2023-09-18T11:40:47;10.00;;;5.88;;
71679;SDS011;59512;42.662;23.254;2023-09-18T11:45:54;11.47;;;5.60;;
71679;SDS011;59512;42.662;23.254;2023-09-18T11:48:22;10.55;;;5.90;;
71679;SDS011;59512;42.662;23.254;2023-09-18T11:50:49;9.43;;;6.07;;
71679;SDS011;59512;42.662;23.254;2023-09-18T11:53:17;10.30;;;5.78;;
71679;SDS011;59512;42.662;23.254;2023-09-18T11:55:46;9.32;;;5.68;;
71679;SDS011;59512;42.662;23.254;2023-09-18T11:58:13;9.43;;;5.77;;
71679;SDS011;59512;42.662;23.254;2023-09-18T12:00:39;11.93;;;6.32;;
71679;SDS011;59512;42.662;23.254;2023-09-18T12:03:28;8.30;;;5.22;;
71679;SDS011;59512;42.662;23.254;2023-09-18T12:05:59;9.48;;;5.35;;
71679;SDS011;59512;42.662;23.254;2023-09-18T12:08:26;9.90;;;5.37;;
71679;SDS011;59512;42.662;23.254;2023-09-18T12:10:55;10.70;;;5.82;;
71679;SDS011;59512;42.662;23.254;2023-09-18T12:13:22;9.63;;;5.10;;
71679;SDS011;59512;42.662;23.254;2023-09-18T12:15:51;8.15;;;5.20;;
71679;SDS011;59512;42.662;23.254;2023-09-18T12:18:21;9.82;;;5.32;;
71679;SDS011;59512;42.662;23.254;2023-09-18T12:20:49;10.07;;;5.37;;
71679;SDS011;59512;42.662;23.254;2023-09-18T12:23:16;7.65;;;5.15;;
71679;SDS011;59512;42.662;23.254;2023-09-18T12:25:45;10.32;;;5.55;;
71679;SDS011;59512;42.662;23.254;2023-09-18T12:28:12;9.25;;;5.63;;
71679;SDS011;59512;42.662;23.254;2023-09-18T12:30:39;10.05;;;5.30;;
71679;SDS011;59512;42.662;23.254;2023-09-18T12:33:05;9.83;;;5.43;;
71679;SDS011;59512;42.662;23.254;2023-09-18T12:35:30;11.10;;;5.50;;
71679;SDS011;59512;42.662;23.254;2023-09-18T12:37:59;9.47;;;4.97;;
71679;SDS011;59512;42.662;23.254;2023-09-18T12:40:30;11.00;;;5.65;;
71679;SDS011;59512;42.662;23.254;2023-09-18T12:42:59;11.32;;;5.50;;
71679;SDS011;59512;42.662;23.254;2023-09-18T12:45:25;8.15;;;5.05;;
71679;SDS011;59512;42.662;23.254;2023-09-18T12:47:51;9.32;;;5.50;;
71679;SDS011;59512;42.662;23.254;2023-09-18T12:50:18;9.45;;;5.28;;
71679;SDS011;59512;42.662;23.254;2023-09-18T12:52:44;8.90;;;5.93;;
71679;SDS011;59512;42.662;23.254;2023-09-18T12:55:22;8.03;;;5.27;;
71679;SDS011;59512;42.662;23.254;2023-09-18T12:57:52;8.63;;;5.55;;
71679;SDS011;59512;42.662;23.254;2023-09-18T13:00:18;9.65;;;5.35;;
71679;SDS011;59512;42.662;23.254;2023-09-18T13:02:46;11.38;;;5.90;;
71679;SDS011;59512;42.662;23.254;2023-09-18T13:05:11;9.40;;;5.40;;
71679;SDS011;59512;42.662;23.254;2023-09-18T13:07:46;12.65;;;5.95;;
71679;SDS011;59512;42.662;23.254;2023-09-18T13:10:12;9.52;;;5.60;;
71679;SDS011;59512;42.662;23.254;2023-09-18T13:15:12;10.55;;;5.65;;
71679;SDS011;59512;42.662;23.254;2023-09-18T13:17:42;9.43;;;5.55;;
71679;SDS011;59512;42.662;23.254;2023-09-18T13:20:10;8.35;;;4.97;;
71679;SDS011;59512;42.662;23.254;2023-09-18T13:22:38;8.30;;;5.63;;
71679;SDS011;59512;42.662;23.254;2023-09-18T13:25:05;9.25;;;5.85;;
71679;SDS011;59512;42.662;23.254;2023-09-18T13:27:32;8.98;;;5.50;;
71679;SDS011;59512;42.662;23.254;2023-09-18T13:29:57;7.90;;;5.07;;
71679;SDS011;59512;42.662;23.254;2023-09-18T13:32:31;8.45;;;5.15;;
71679;SDS011;59512;42.662;23.254;2023-09-18T13:35:03;9.60;;;5.60;;
71679;SDS011;59512;42.662;23.254;2023-09-18T13:37:31;9.27;;;5.30;;
71679;SDS011;59512;42.662;23.254;2023-09-18T13:39:57;9.65;;;4.95;;
71679;SDS011;59512;42.662;23.254;2023-09-18T13:42:22;9.43;;;4.83;;
71679;SDS011;59512;42.662;23.254;2023-09-18T13:44:48;9.77;;;5.47;;
71679;SDS011;59512;42.662;23.254;2023-09-18T13:47:14;8.00;;;5.05;;
71679;SDS011;59512;42.662;23.254;2023-09-18T13:49:40;8.67;;;5.27;;
71679;SDS011;59512;42.662;23.254;2023-09-18T13:52:05;10.82;;;5.85;;
71679;SDS011;59512;42.662;23.254;2023-09-18T13:54:31;9.98;;;5.15;;
71679;SDS011;59512;42.662;23.254;2023-09-18T13:56:56;10.37;;;5.97;;
71679;SDS011;59512;42.662;23.254;2023-09-18T13:59:21;10.53;;;5.90;;
71679;SDS011;59512;42.662;23.254;2023-09-18T14:01:47;13.80;;;5.30;;
71679;SDS011;59512;42.662;23.254;2023-09-18T14:04:12;8.82;;;4.93;;
71679;SDS011;59512;42.662;23.254;2023-09-18T14:06:38;9.60;;;5.67;;
71679;SDS011;59512;42.662;23.254;2023-09-18T14:09:03;11.20;;;5.63;;
71679;SDS011;59512;42.662;23.254;2023-09-18T14:11:30;8.82;;;5.25;;
71679;SDS011;59512;42.662;23.254;2023-09-18T14:13:56;8.27;;;5.18;;
71679;SDS011;59512;42.662;23.254;2023-09-18T14:16:21;7.90;;;5.20;;
71679;SDS011;59512;42.662;23.254;2023-09-18T14:18:47;10.07;;;5.37;;
71679;SDS011;59512;42.662;23.254;2023-09-18T14:21:12;9.50;;;5.20;;
71679;SDS011;59512;42.662;23.254;2023-09-18T14:23:38;8.10;;;5.20;;
71679;SDS011;59512;42.662;23.254;2023-09-18T14:26:03;9.18;;;5.57;;
71679;SDS011;59512;42.662;23.254;2023-09-18T14:28:29;9.67;;;5.77;;
71679;SDS011;59512;42.662;23.254;2023-09-18T14:30:54;10.80;;;5.47;;
71679;SDS011;59512;42.662;23.254;2023-09-18T14:33:19;9.43;;;5.90;;